Brady, TX (76825)

3:33 PM CST on February 14, 2016 (GMT -0600)
Amateur Radio Station K5PW | | Change Station
CLOSE
Current Station
Personal Weather Station
Location: Brady, TX
Elevation: 1860 ft
Nearby Weather Stations

Elev 1860 ft 31.20 °N, 99.37 °W | Updated 12 seconds ago

Partly Cloudy
Partly Cloudy
73.1 °F
Feels Like 77 °F
N
5.0
Wind Variable Wind from SSW
Gusts 5.0 mph

Today
High -- | Low -- °F
--% Chance of Precip.
Yesterday
High -- | Low -- °F
Precip. -- in
Pressure 29.87 in
Visibility 10.0 miles
Clouds Clear
Heat Index 77 °F
Dew Point 51 °F
Humidity 46%
Rainfall 0.00 in
Snow Depth Not available.
7:19 AM 6:23 PM
Waxing Crescent, 45% visible
METAR KAQO 142115Z AUTO 20010G15KT 10SM CLR 23/11 A2987 RMK AO2
Pressure 29.87 in
Visibility 10.0 miles
Clouds Clear
Heat Index 77 °F
Dew Point 51 °F
Humidity 46%
Rainfall 0.00 in
Snow Depth Not available.
7:19 AM 6:23 PM
Waxing Crescent, 45% visible
METAR KAQO 142115Z AUTO 20010G15KT 10SM CLR 23/11 A2987 RMK AO2

10-Day Weather Forecast

Almanac

Astronomy

Feb. 14, 2016 Rise Set
Actual Time
Civil Twilight
Nautical Twilight
Astronomical Twilight
Moon
Length of Visible Light
Length of Day
Tomorrow will be .
, % of the Moon is Illuminated

Today's Extremes

State Highs State Lows

Community

WunderPhotos

Upload Photos

1,892,890 photos uploaded!

WunderBlog® & News

Nearby

Air Quality

  Air Quality AQ Index Pollutant
Not available.

Snow Depth

Station Depth Elevation

Earthquake Activity

City Distance Mag. Time & Date
Minimum magnitude displayed is 2.5.

Coastal Water Temperatures

Place Temperature

Stations

Nearby Weather Stations

Station Location Temp. Windchill Dew Point Humidity Wind Precip. Elev Updated Type
                   

Watches & Warnings

There are currently no watches in effect.